El Bolson, Argentina
Current Conditions -  °F | °C
As of 11:00 PM on Sunday 21 Dec 2014 (Local Time) from SAZS Reporting Station
Scattered Clouds Scattered Clouds  
Wind Chill: 37°   Ceiling: Unl
Heat Index: 43°   Visibility: 6mi
Dew Point: 27°   Wind: 9mph
Humidity: 53%   Direction: 290°WNW
Pressure: 30.18"   Gusts: NA
Location:  41.97°S, 71.52°W
Report Text: SAZS 220200Z 29008KT 9999 SCT030 FEW10006/M03 Q1022
Loading
Personal Weather Stations






























Interactive Weather Map New forecast layout! Learn more

10-Day Weather Forecast

Advertisements
Track Severe Weather on mobile